createdAt,value
2022-10-13T00:00:31.751Z,0.00
2022-10-13T00:01:31.738Z,0.00
2022-10-13T00:02:31.726Z,0.00
2022-10-13T00:03:31.708Z,0.00
2022-10-13T00:04:31.704Z,0.00
2022-10-13T00:05:31.690Z,0.00
2022-10-13T00:06:31.692Z,0.00
2022-10-13T00:07:31.665Z,0.00
2022-10-13T00:08:31.666Z,0.00
2022-10-13T00:09:31.653Z,0.00
2022-10-13T00:10:31.639Z,0.00
2022-10-13T00:11:31.632Z,0.00
2022-10-13T00:12:31.619Z,0.00
2022-10-13T00:13:31.595Z,0.00
2022-10-13T00:14:31.584Z,0.00
2022-10-13T00:15:31.584Z,0.00
2022-10-13T00:16:31.558Z,0.00
2022-10-13T00:17:31.668Z,0.00
2022-10-13T00:18:31.537Z,0.00
2022-10-13T00:19:31.547Z,0.00
2022-10-13T00:20:31.514Z,0.00
2022-10-13T00:21:31.513Z,0.00
2022-10-13T00:22:31.517Z,0.00
2022-10-13T00:23:31.483Z,0.00
2022-10-13T00:24:31.476Z,0.00
2022-10-13T00:25:31.463Z,0.00
2022-10-13T00:26:31.447Z,0.00
2022-10-13T00:27:31.454Z,0.00
2022-10-13T00:28:31.448Z,0.00
2022-10-13T00:29:31.447Z,0.00
2022-10-13T00:30:31.408Z,0.00
2022-10-13T00:31:31.408Z,0.00
2022-10-13T00:32:31.389Z,0.00
2022-10-13T00:33:31.391Z,0.00
2022-10-13T00:34:31.363Z,0.00
2022-10-13T00:35:31.357Z,0.00
2022-10-13T00:36:31.343Z,0.00
2022-10-13T00:37:31.343Z,0.00
2022-10-13T00:38:31.344Z,0.00
2022-10-13T00:39:31.314Z,0.00
2022-10-13T00:40:31.293Z,0.00
2022-10-13T00:41:31.290Z,0.00
2022-10-13T00:42:31.280Z,0.00
2022-10-13T00:43:31.324Z,0.00
2022-10-13T00:44:31.257Z,0.00
2022-10-13T00:45:31.265Z,0.00
2022-10-13T00:46:31.232Z,0.00
2022-10-13T00:47:31.226Z,0.00
2022-10-13T00:48:31.219Z,0.00
2022-10-13T00:49:31.209Z,0.00
2022-10-13T00:50:31.187Z,0.00
2022-10-13T00:51:31.185Z,0.00
2022-10-13T00:52:31.168Z,0.00
2022-10-13T00:53:31.178Z,0.00
2022-10-13T00:54:31.160Z,0.00
2022-10-13T00:55:31.135Z,0.00
2022-10-13T00:56:31.123Z,0.00
2022-10-13T00:57:31.114Z,0.00
2022-10-13T00:58:31.101Z,0.00
2022-10-13T00:59:31.106Z,0.00
2022-10-13T01:00:31.149Z,0.00
2022-10-13T01:01:31.072Z,0.00
2022-10-13T01:02:31.052Z,0.00
2022-10-13T01:03:31.064Z,0.00
2022-10-13T01:04:31.043Z,0.00
2022-10-13T01:05:31.029Z,0.00
2022-10-13T01:06:31.014Z,0.00
2022-10-13T01:07:31.012Z,0.00
2022-10-13T01:08:31.009Z,0.00
2022-10-13T01:09:31.095Z,0.00
2022-10-13T01:10:30.981Z,0.00
2022-10-13T01:11:30.970Z,0.00
2022-10-13T01:12:30.951Z,0.00
2022-10-13T01:13:30.935Z,0.00
2022-10-13T01:14:30.926Z,0.00
2022-10-13T01:15:30.925Z,0.00
2022-10-13T01:16:30.904Z,0.00
2022-10-13T01:17:30.916Z,0.00
2022-10-13T01:18:30.889Z,0.00
2022-10-13T01:19:30.872Z,0.00
2022-10-13T01:20:30.890Z,0.00
2022-10-13T01:21:30.884Z,0.00
2022-10-13T01:22:30.837Z,0.00
2022-10-13T01:23:30.839Z,0.00
2022-10-13T01:24:30.814Z,0.00
2022-10-13T01:25:30.814Z,0.00
2022-10-13T01:26:30.803Z,0.00
2022-10-13T01:27:30.785Z,0.00
2022-10-13T01:28:30.845Z,0.00
2022-10-13T01:29:30.769Z,0.00
2022-10-13T01:30:30.749Z,0.00
2022-10-13T01:31:30.762Z,0.00
2022-10-13T01:32:30.742Z,0.00
2022-10-13T01:33:30.725Z,0.00
2022-10-13T01:34:30.703Z,0.00
2022-10-13T01:35:30.721Z,0.00
2022-10-13T01:36:30.691Z,0.00
2022-10-13T01:37:30.687Z,0.00
2022-10-13T01:38:30.670Z,0.00
2022-10-13T01:39:30.661Z,0.00
2022-10-13T01:40:30.640Z,0.00
2022-10-13T01:41:30.641Z,0.00
2022-10-13T01:42:30.651Z,0.00
2022-10-13T01:43:30.635Z,0.00
2022-10-13T01:44:30.610Z,0.00
2022-10-13T01:45:30.598Z,0.00
2022-10-13T01:46:30.578Z,0.00
2022-10-13T01:47:30.585Z,0.00
2022-10-13T01:48:30.566Z,0.00
2022-10-13T01:49:30.555Z,0.00
2022-10-13T01:50:30.539Z,0.00
2022-10-13T01:51:30.526Z,0.00
2022-10-13T01:52:30.534Z,0.00
2022-10-13T01:53:30.511Z,0.00
2022-10-13T01:54:30.491Z,0.00
2022-10-13T01:55:30.491Z,0.00
2022-10-13T01:56:30.479Z,0.00
2022-10-13T01:57:30.499Z,0.00
2022-10-13T01:58:30.457Z,0.00
2022-10-13T01:59:30.438Z,0.00
2022-10-13T02:00:30.480Z,0.00
2022-10-13T02:01:30.422Z,0.00
2022-10-13T02:02:30.405Z,0.00
2022-10-13T02:03:30.423Z,0.00
2022-10-13T02:04:30.392Z,0.00
2022-10-13T02:05:30.385Z,0.00
2022-10-13T02:06:30.362Z,0.00
2022-10-13T02:07:30.359Z,0.00
2022-10-13T02:08:30.352Z,0.00
2022-10-13T02:09:30.348Z,0.00
2022-10-13T02:10:30.323Z,0.00
2022-10-13T02:11:30.325Z,0.00
2022-10-13T02:12:30.309Z,0.00
2022-10-13T02:13:30.316Z,0.00
2022-10-13T02:14:30.302Z,0.00
2022-10-13T02:15:30.273Z,0.00
2022-10-13T02:16:30.262Z,0.00
2022-10-13T02:17:30.252Z,0.00
2022-10-13T02:18:30.233Z,0.00
2022-10-13T02:19:30.246Z,0.00
2022-10-13T02:20:30.224Z,0.00
2022-10-13T02:21:30.216Z,0.00
2022-10-13T02:22:30.196Z,0.00
2022-10-13T02:23:30.201Z,0.00
2022-10-13T02:24:30.182Z,0.00
2022-10-13T02:25:30.168Z,0.00
2022-10-13T02:26:30.147Z,0.00
2022-10-13T02:27:30.150Z,0.00
2022-10-13T02:28:30.174Z,0.00
2022-10-13T02:29:30.133Z,0.00
2022-10-13T02:30:30.120Z,0.00
2022-10-13T02:31:30.119Z,0.00
2022-10-13T02:32:30.084Z,0.00
2022-10-13T02:33:30.085Z,0.00
2022-10-13T02:34:30.066Z,0.00
2022-10-13T02:35:30.078Z,0.00
2022-10-13T02:36:30.079Z,0.00
2022-10-13T02:37:30.053Z,0.00
2022-10-13T02:38:30.025Z,0.00
2022-10-13T02:39:30.021Z,0.00
2022-10-13T02:40:30.041Z,0.00
2022-10-13T02:41:30.006Z,0.00
2022-10-13T02:42:29.983Z,0.00
2022-10-13T02:43:29.978Z,0.00
2022-10-13T02:44:29.959Z,0.00
2022-10-13T02:45:29.948Z,0.00
2022-10-13T02:46:29.950Z,0.00
2022-10-13T02:47:29.940Z,0.00
2022-10-13T02:48:29.921Z,0.00
2022-10-13T02:49:29.917Z,0.00
2022-10-13T02:50:29.899Z,0.00
2022-10-13T02:51:29.907Z,0.00
2022-10-13T02:52:29.876Z,0.00
2022-10-13T02:53:29.869Z,0.00
2022-10-13T02:54:29.866Z,0.00
2022-10-13T02:55:29.855Z,0.00
2022-10-13T02:56:29.844Z,0.00
2022-10-13T02:57:29.847Z,0.00
2022-10-13T02:58:29.816Z,0.00
2022-10-13T02:59:29.804Z,0.00
2022-10-13T03:00:29.841Z,0.00
2022-10-13T03:01:29.778Z,0.00
2022-10-13T03:02:29.782Z,0.00
2022-10-13T03:03:29.769Z,0.00
2022-10-13T03:04:29.749Z,0.00
2022-10-13T03:05:29.739Z,0.00
2022-10-13T03:06:29.730Z,0.00
2022-10-13T03:07:29.724Z,0.00
2022-10-13T03:08:29.712Z,0.00
2022-10-13T03:09:29.696Z,0.00
2022-10-13T03:10:29.687Z,0.00
2022-10-13T03:11:29.688Z,0.00
2022-10-13T03:12:29.674Z,0.00
2022-10-13T03:13:29.664Z,0.00
2022-10-13T03:14:29.640Z,0.00
2022-10-13T03:15:29.640Z,0.00
2022-10-13T03:16:29.632Z,0.00
2022-10-13T03:17:29.638Z,0.00
2022-10-13T03:18:29.613Z,0.00
2022-10-13T03:19:29.650Z,0.00
2022-10-13T03:20:29.577Z,0.00
2022-10-13T03:21:29.571Z,0.00
2022-10-13T03:22:29.553Z,0.00
2022-10-13T03:23:29.561Z,0.00
2022-10-13T03:24:29.549Z,0.00
2022-10-13T03:25:29.526Z,0.00
2022-10-13T03:26:29.509Z,0.00
2022-10-13T03:27:29.510Z,0.00
2022-10-13T03:28:29.580Z,0.00
2022-10-13T03:29:29.496Z,0.00
2022-10-13T03:30:29.483Z,0.00
2022-10-13T03:31:29.489Z,0.00
2022-10-13T03:32:29.457Z,0.00
2022-10-13T03:33:29.448Z,0.00
2022-10-13T03:34:29.468Z,0.00
2022-10-13T03:35:29.419Z,0.00
2022-10-13T03:36:29.399Z,0.00
2022-10-13T03:37:29.406Z,0.00
2022-10-13T03:38:29.396Z,0.00
2022-10-13T03:39:29.386Z,0.00
2022-10-13T03:40:29.394Z,0.00
2022-10-13T03:41:29.364Z,0.00
2022-10-13T03:42:29.341Z,0.00
2022-10-13T03:43:29.343Z,0.00
2022-10-13T03:44:29.323Z,0.00
2022-10-13T03:45:29.330Z,0.00
2022-10-13T03:46:29.300Z,0.00
2022-10-13T03:47:29.295Z,0.00
2022-10-13T03:48:29.272Z,0.00
2022-10-13T03:49:29.275Z,0.00
2022-10-13T03:50:29.286Z,0.00
2022-10-13T03:51:29.261Z,0.00
2022-10-13T03:52:29.239Z,0.00
2022-10-13T03:53:29.246Z,0.00
2022-10-13T03:54:29.211Z,0.00
2022-10-13T03:55:29.218Z,0.00
2022-10-13T03:56:29.208Z,0.00
2022-10-13T03:57:29.188Z,0.00
2022-10-13T03:58:29.169Z,0.00
2022-10-13T03:59:31.815Z,0.00
2022-10-13T04:00:29.162Z,0.00
2022-10-13T04:01:29.226Z,0.00
2022-10-13T04:02:29.128Z,0.00
2022-10-13T04:03:29.128Z,0.00
2022-10-13T04:04:29.108Z,0.00
2022-10-13T04:05:29.105Z,0.00
2022-10-13T04:06:29.090Z,0.00
2022-10-13T04:07:29.081Z,0.00
2022-10-13T04:08:29.067Z,0.00
2022-10-13T04:09:29.055Z,0.00
2022-10-13T04:10:29.042Z,0.00
2022-10-13T04:11:29.069Z,0.00
2022-10-13T04:12:29.058Z,0.00
2022-10-13T04:13:29.033Z,0.00
2022-10-13T04:14:29.001Z,0.00
2022-10-13T04:15:28.988Z,0.00
2022-10-13T04:16:28.984Z,0.00
2022-10-13T04:17:28.987Z,0.00
2022-10-13T04:18:28.973Z,0.00
2022-10-13T04:19:28.944Z,0.00
2022-10-13T04:20:28.933Z,0.00
2022-10-13T04:21:28.920Z,0.00
2022-10-13T04:22:28.925Z,0.00
2022-10-13T04:23:28.940Z,0.00
2022-10-13T04:24:28.903Z,0.00
2022-10-13T04:25:28.887Z,0.00
2022-10-13T04:26:28.880Z,0.00
2022-10-13T04:27:28.857Z,0.00
2022-10-13T04:28:28.933Z,0.00
2022-10-13T04:29:28.839Z,0.00
2022-10-13T04:30:28.846Z,0.00
2022-10-13T04:31:28.839Z,0.00
2022-10-13T04:32:28.828Z,0.00
2022-10-13T04:33:28.811Z,0.00
2022-10-13T04:34:28.808Z,0.00
2022-10-13T04:35:28.780Z,0.00
2022-10-13T04:36:28.769Z,0.00
2022-10-13T04:37:28.750Z,0.00
2022-10-13T04:38:28.757Z,0.00
2022-10-13T04:39:28.754Z,0.00
2022-10-13T04:40:28.730Z,0.00
2022-10-13T04:41:28.712Z,0.00
2022-10-13T04:42:28.736Z,0.00
2022-10-13T04:43:28.690Z,0.00
2022-10-13T04:44:28.747Z,0.00
2022-10-13T04:45:28.673Z,0.00
2022-10-13T04:46:28.684Z,0.00
2022-10-13T04:47:29.921Z,0.00
2022-10-13T04:48:28.639Z,0.00
2022-10-13T04:49:28.640Z,0.00
2022-10-13T04:50:28.643Z,0.00
2022-10-13T04:51:28.607Z,0.00
2022-10-13T04:52:28.604Z,0.00
2022-10-13T04:53:28.591Z,0.00
2022-10-13T04:54:28.604Z,0.00
2022-10-13T04:55:28.589Z,0.00
2022-10-13T04:56:28.550Z,0.00
2022-10-13T04:57:28.539Z,0.00
2022-10-13T04:58:28.538Z,0.00
2022-10-13T04:59:28.524Z,0.00
2022-10-13T05:00:28.613Z,0.00
2022-10-13T05:01:28.513Z,0.00
2022-10-13T05:02:28.487Z,0.00
2022-10-13T05:03:28.473Z,0.00
2022-10-13T05:04:28.466Z,0.00
2022-10-13T05:05:28.453Z,4.00
2022-10-13T05:06:28.457Z,4.00
2022-10-13T05:07:28.444Z,0.00
2022-10-13T05:08:28.458Z,0.00
2022-10-13T05:09:28.417Z,4.00
2022-10-13T05:10:31.308Z,0.00
2022-10-13T05:11:28.414Z,4.00
2022-10-13T05:12:28.392Z,4.00
2022-10-13T05:13:28.368Z,4.00
2022-10-13T05:14:28.359Z,8.00
2022-10-13T05:15:28.350Z,8.00
2022-10-13T05:16:28.358Z,4.00
2022-10-13T05:17:32.826Z,8.00
2022-10-13T05:18:28.330Z,8.00
2022-10-13T05:19:28.312Z,8.00
2022-10-13T05:20:28.300Z,12.00
2022-10-13T05:21:28.289Z,16.00
2022-10-13T05:22:28.296Z,12.00
2022-10-13T05:23:28.261Z,16.00
2022-10-13T05:24:28.261Z,16.00
2022-10-13T05:25:31.557Z,20.00
2022-10-13T05:26:28.245Z,20.00
2022-10-13T05:27:28.255Z,24.00
2022-10-13T05:28:28.253Z,28.00
2022-10-13T05:29:28.200Z,28.00
2022-10-13T05:30:28.207Z,32.00
2022-10-13T05:31:28.173Z,36.00
2022-10-13T05:32:28.212Z,40.00
2022-10-13T05:33:28.166Z,44.00
2022-10-13T05:34:28.155Z,44.00
2022-10-13T05:35:28.179Z,52.00
2022-10-13T05:36:28.144Z,52.00
2022-10-13T05:37:28.126Z,56.00
2022-10-13T05:38:28.122Z,64.00
2022-10-13T05:39:28.111Z,68.00
2022-10-13T05:40:28.091Z,72.00
2022-10-13T05:41:28.074Z,76.00
2022-10-13T05:42:28.071Z,84.00
2022-10-13T05:43:28.058Z,92.00
2022-10-13T05:44:28.073Z,96.00
2022-10-13T05:45:28.035Z,104.00
2022-10-13T05:46:28.036Z,108.00
2022-10-13T05:47:28.008Z,116.00
2022-10-13T05:48:27.998Z,124.00
2022-10-13T05:49:27.993Z,128.00
2022-10-13T05:50:27.985Z,132.00
2022-10-13T05:51:27.967Z,140.00
2022-10-13T05:52:27.954Z,144.00
2022-10-13T05:53:27.941Z,152.00
2022-10-13T05:54:27.973Z,152.00
2022-10-13T05:55:27.964Z,152.00
2022-10-13T05:56:27.923Z,152.00
2022-10-13T05:57:27.910Z,152.00
2022-10-13T05:58:27.897Z,156.00
2022-10-13T05:59:27.881Z,160.00
2022-10-13T06:00:27.883Z,164.00
2022-10-13T06:01:27.906Z,164.00
2022-10-13T06:02:27.849Z,168.00
2022-10-13T06:03:27.841Z,172.00
2022-10-13T06:04:27.839Z,172.00
2022-10-13T06:05:27.831Z,172.00
2022-10-13T06:06:31.264Z,176.00
2022-10-13T06:07:27.797Z,180.00
2022-10-13T06:08:27.813Z,180.00
2022-10-13T06:09:27.784Z,184.00
2022-10-13T06:10:27.782Z,184.00
2022-10-13T06:11:27.757Z,188.00
2022-10-13T06:12:27.756Z,188.00
2022-10-13T06:13:27.743Z,188.00
2022-10-13T06:14:27.727Z,192.00
2022-10-13T06:15:28.469Z,196.00
2022-10-13T06:16:27.723Z,200.00
2022-10-13T06:17:27.693Z,204.00
2022-10-13T06:18:27.689Z,208.00
2022-10-13T06:19:27.679Z,216.00
2022-10-13T06:20:27.665Z,224.00
2022-10-13T06:21:27.666Z,232.00
2022-10-13T06:22:27.638Z,236.00
2022-10-13T06:23:27.626Z,244.00
2022-10-13T06:24:27.629Z,248.00
2022-10-13T06:25:27.608Z,252.00
2022-10-13T06:26:27.715Z,260.00
2022-10-13T06:27:27.594Z,264.00
2022-10-13T06:28:27.641Z,268.00
2022-10-13T06:29:27.566Z,272.00
2022-10-13T06:30:27.562Z,276.00
2022-10-13T06:31:27.557Z,276.00
2022-10-13T06:32:27.547Z,276.00
2022-10-13T06:33:27.516Z,280.00
2022-10-13T06:34:27.511Z,280.00
2022-10-13T06:35:27.502Z,284.00
2022-10-13T06:36:27.502Z,284.00
2022-10-13T06:37:27.764Z,284.00
2022-10-13T06:38:27.469Z,284.00
2022-10-13T06:39:27.454Z,288.00
2022-10-13T06:40:27.445Z,296.00
2022-10-13T06:41:27.435Z,300.00
2022-10-13T06:42:27.455Z,312.00
2022-10-13T06:43:35.686Z,336.00
2022-10-13T06:44:27.429Z,356.00
2022-10-13T06:45:27.391Z,360.00
2022-10-13T06:46:27.387Z,368.00
2022-10-13T06:47:27.375Z,368.00
2022-10-13T06:48:27.357Z,384.00
2022-10-13T06:49:27.347Z,432.00
2022-10-13T06:50:27.342Z,484.00
2022-10-13T06:51:27.331Z,492.00
2022-10-13T06:52:27.331Z,464.00
2022-10-13T06:53:27.315Z,428.00
2022-10-13T06:54:27.295Z,408.00
2022-10-13T06:55:27.289Z,400.00
2022-10-13T06:56:27.285Z,404.00
2022-10-13T06:57:27.277Z,400.00
2022-10-13T06:58:27.259Z,396.00
2022-10-13T06:59:27.233Z,396.00
2022-10-13T07:00:27.260Z,396.00
2022-10-13T07:01:27.217Z,404.00
2022-10-13T07:02:27.217Z,408.00
2022-10-13T07:03:27.204Z,400.00
2022-10-13T07:04:27.197Z,396.00
2022-10-13T07:05:27.176Z,404.00
2022-10-13T07:06:27.177Z,412.00
2022-10-13T07:07:27.163Z,412.00
2022-10-13T07:08:27.135Z,412.00
2022-10-13T07:09:27.128Z,408.00
2022-10-13T07:10:27.174Z,412.00
2022-10-13T07:11:27.114Z,440.00
2022-10-13T07:12:27.116Z,488.00
2022-10-13T07:13:28.476Z,548.00
2022-10-13T07:14:27.082Z,600.00
2022-10-13T07:15:27.195Z,628.00
2022-10-13T07:16:27.050Z,640.00
2022-10-13T07:17:27.055Z,648.00
2022-10-13T07:18:27.040Z,664.00
2022-10-13T07:19:27.021Z,672.00
2022-10-13T07:20:27.012Z,652.00
2022-10-13T07:21:27.008Z,704.00
2022-10-13T07:22:27.021Z,812.00
2022-10-13T07:23:26.995Z,684.00
2022-10-13T07:24:26.962Z,752.00
2022-10-13T07:25:26.957Z,812.00
2022-10-13T07:26:26.940Z,840.00
2022-10-13T07:27:26.981Z,796.00
2022-10-13T07:28:27.018Z,756.00
2022-10-13T07:29:26.903Z,676.00
2022-10-13T07:30:26.899Z,680.00
2022-10-13T07:31:26.899Z,584.00
2022-10-13T07:32:26.885Z,572.00
2022-10-13T07:33:26.875Z,584.00
2022-10-13T07:34:26.858Z,600.00
2022-10-13T07:35:30.434Z,616.00
2022-10-13T07:36:26.836Z,644.00
2022-10-13T07:37:26.814Z,640.00
2022-10-13T07:38:26.845Z,648.00
2022-10-13T07:39:26.806Z,652.00
2022-10-13T07:40:26.803Z,664.00
2022-10-13T07:41:26.784Z,720.00
2022-10-13T07:42:26.778Z,796.00
2022-10-13T07:43:26.764Z,896.00
2022-10-13T07:44:26.744Z,896.00
2022-10-13T07:45:26.730Z,964.00
2022-10-13T07:46:26.724Z,904.00
2022-10-13T07:47:26.715Z,880.00
2022-10-13T07:48:26.722Z,908.00
2022-10-13T07:49:26.695Z,1108.00
2022-10-13T07:50:26.676Z,1092.00
2022-10-13T07:51:26.662Z,1124.00
2022-10-13T07:52:26.664Z,1140.00
2022-10-13T07:53:26.661Z,1160.00
2022-10-13T07:54:27.593Z,1180.00
2022-10-13T07:55:26.631Z,1208.00
2022-10-13T07:56:26.622Z,1244.00
2022-10-13T07:57:26.604Z,1276.00
2022-10-13T07:58:26.603Z,1300.00
2022-10-13T07:59:26.584Z,1328.00
2022-10-13T08:00:26.590Z,1348.00
2022-10-13T08:01:26.633Z,1352.00
2022-10-13T08:02:26.559Z,1384.00
2022-10-13T08:03:26.593Z,1392.00
2022-10-13T08:04:26.528Z,1352.00
2022-10-13T08:05:26.650Z,1404.00
2022-10-13T08:06:26.530Z,1316.00
2022-10-13T08:07:26.518Z,1240.00
2022-10-13T08:08:26.497Z,1220.00
2022-10-13T08:09:26.478Z,1180.00
2022-10-13T08:10:26.466Z,1176.00
2022-10-13T08:11:26.488Z,1180.00
2022-10-13T08:12:26.442Z,1156.00
2022-10-13T08:13:26.443Z,1160.00
2022-10-13T08:14:26.518Z,1164.00
2022-10-13T08:15:26.401Z,1152.00
2022-10-13T08:16:26.399Z,1152.00
2022-10-13T08:17:26.388Z,1148.00
2022-10-13T08:18:26.401Z,1148.00
2022-10-13T08:19:26.461Z,1160.00
2022-10-13T08:20:36.218Z,1184.00
2022-10-13T08:21:56.747Z,1204.00
2022-10-13T08:22:28.429Z,1252.00
2022-10-13T08:23:26.331Z,1476.00
2022-10-13T08:24:26.335Z,1432.00
2022-10-13T08:25:26.295Z,1332.00
2022-10-13T08:26:26.293Z,1296.00
2022-10-13T08:27:32.783Z,1296.00
2022-10-13T08:28:26.295Z,1276.00
2022-10-13T08:29:26.405Z,1264.00
2022-10-13T08:30:26.489Z,1252.00
2022-10-13T08:31:26.430Z,1252.00
2022-10-13T08:32:26.238Z,1248.00
2022-10-13T08:33:26.213Z,1260.00
2022-10-13T08:34:26.208Z,1268.00
2022-10-13T08:35:26.212Z,1280.00
2022-10-13T08:36:26.191Z,1308.00
2022-10-13T08:37:26.170Z,1308.00
2022-10-13T08:38:26.156Z,1320.00
2022-10-13T08:39:26.168Z,1328.00
2022-10-13T08:40:26.161Z,1332.00
2022-10-13T08:41:26.120Z,1360.00
2022-10-13T08:42:26.107Z,1380.00
2022-10-13T08:43:26.103Z,1376.00
2022-10-13T08:45:10.800Z,1444.00
2022-10-13T08:45:40.824Z,1448.00
2022-10-13T08:46:26.073Z,1480.00
2022-10-13T08:47:26.061Z,1480.00
2022-10-13T08:48:26.050Z,1480.00
2022-10-13T08:49:26.031Z,1500.00
2022-10-13T08:50:26.035Z,1492.00
2022-10-13T08:51:26.018Z,1468.00
2022-10-13T08:52:26.002Z,1452.00
2022-10-13T08:53:25.997Z,1456.00
2022-10-13T08:54:25.987Z,1448.00
2022-10-13T08:55:25.989Z,1460.00
2022-10-13T08:56:25.957Z,1472.00
2022-10-13T08:57:25.948Z,1476.00
2022-10-13T08:58:25.935Z,1460.00
2022-10-13T08:59:25.939Z,1444.00
2022-10-13T09:00:26.208Z,1424.00
2022-10-13T09:01:25.959Z,1396.00
2022-10-13T09:02:25.891Z,1372.00
2022-10-13T09:03:25.897Z,1352.00
2022-10-13T09:04:25.875Z,1328.00
2022-10-13T09:05:25.880Z,1308.00
2022-10-13T09:06:25.862Z,1284.00
2022-10-13T09:07:25.865Z,1256.00
2022-10-13T09:08:25.840Z,1232.00
2022-10-13T09:09:25.829Z,1212.00
2022-10-13T09:10:25.836Z,1192.00
2022-10-13T09:11:26.011Z,1188.00
2022-10-13T09:12:25.789Z,1196.00
2022-10-13T09:13:25.779Z,1212.00
2022-10-13T09:14:25.763Z,1220.00
2022-10-13T09:15:25.757Z,1232.00
2022-10-13T09:16:26.030Z,1244.00
2022-10-13T09:17:25.750Z,1260.00
2022-10-13T09:18:25.737Z,1276.00
2022-10-13T09:19:25.747Z,1292.00
2022-10-13T09:20:25.698Z,1312.00
2022-10-13T09:21:25.690Z,1328.00
2022-10-13T09:22:25.690Z,1344.00
2022-10-13T09:23:25.663Z,1368.00
2022-10-13T09:24:25.652Z,1392.00
2022-10-13T09:25:25.646Z,1412.00
2022-10-13T09:26:25.643Z,1444.00
2022-10-13T09:27:25.646Z,1472.00
2022-10-13T09:28:25.688Z,1496.00
2022-10-13T09:29:25.606Z,1520.00
2022-10-13T09:30:25.596Z,1548.00
2022-10-13T09:31:25.577Z,1576.00
2022-10-13T09:32:25.580Z,1604.00
2022-10-13T09:33:25.559Z,1628.00
2022-10-13T09:34:25.546Z,1652.00
2022-10-13T09:35:25.528Z,1672.00
2022-10-13T09:36:25.521Z,1688.00
2022-10-13T09:37:25.545Z,1704.00
2022-10-13T09:38:25.519Z,1716.00
2022-10-13T09:39:25.496Z,1732.00
2022-10-13T09:40:25.479Z,1736.00
2022-10-13T09:41:25.470Z,1748.00
2022-10-13T09:42:25.481Z,1756.00
2022-10-13T09:43:25.460Z,1764.00
2022-10-13T09:44:27.066Z,1780.00
2022-10-13T09:45:25.422Z,1784.00
2022-10-13T09:46:25.415Z,1788.00
2022-10-13T09:47:25.406Z,1788.00
2022-10-13T09:48:25.415Z,1784.00
2022-10-13T09:49:25.384Z,1776.00
2022-10-13T09:50:25.365Z,1776.00
2022-10-13T09:51:25.356Z,1776.00
2022-10-13T09:52:25.358Z,1772.00
2022-10-13T09:53:25.354Z,1772.00
2022-10-13T09:54:25.328Z,1788.00
2022-10-13T09:55:28.692Z,1800.00
2022-10-13T09:56:25.318Z,1820.00
2022-10-13T09:57:25.305Z,1848.00
2022-10-13T09:58:25.290Z,1872.00
2022-10-13T09:59:25.270Z,1900.00
2022-10-13T10:00:25.262Z,1924.00
2022-10-13T10:01:25.245Z,1948.00
2022-10-13T10:02:26.705Z,1968.00
2022-10-13T10:03:25.245Z,1988.00
2022-10-13T10:04:25.279Z,2032.00
2022-10-13T10:05:25.221Z,2120.00
2022-10-13T10:06:27.729Z,2296.00
2022-10-13T10:07:25.205Z,2176.00
2022-10-13T10:08:33.356Z,2196.00
2022-10-13T10:09:25.217Z,2280.00
2022-10-13T10:10:25.151Z,2356.00
2022-10-13T10:11:25.187Z,2512.00
2022-10-13T10:12:27.666Z,2536.00
2022-10-13T10:13:25.121Z,2492.00
2022-10-13T10:14:25.106Z,2340.00
2022-10-13T10:15:25.121Z,2336.00
2022-10-13T10:16:25.093Z,2240.00
2022-10-13T10:17:25.083Z,2120.00
2022-10-13T10:18:25.071Z,2104.00
2022-10-13T10:19:25.069Z,2116.00
2022-10-13T10:20:25.066Z,2136.00
2022-10-13T10:21:25.057Z,2224.00
2022-10-13T10:22:25.024Z,2168.00
2022-10-13T10:23:25.039Z,2040.00
2022-10-13T10:24:25.024Z,2100.00
2022-10-13T10:25:25.015Z,1992.00
2022-10-13T10:26:30.133Z,2064.00
2022-10-13T10:27:24.992Z,2064.00
2022-10-13T10:28:25.033Z,1960.00
2022-10-13T10:29:24.944Z,1944.00
2022-10-13T10:30:24.974Z,2064.00
2022-10-13T10:31:24.935Z,2120.00
2022-10-13T10:32:24.910Z,2344.00
2022-10-13T10:33:24.907Z,2112.00
2022-10-13T10:34:24.894Z,2416.00
2022-10-13T10:35:24.894Z,2172.00
2022-10-13T10:36:24.879Z,2016.00
2022-10-13T10:37:25.486Z,2028.00
2022-10-13T10:38:24.851Z,2052.00
2022-10-13T10:39:24.838Z,2172.00
2022-10-13T10:40:24.835Z,2168.00
2022-10-13T10:41:24.825Z,2172.00
2022-10-13T10:42:24.800Z,2180.00
2022-10-13T10:43:24.804Z,2292.00
2022-10-13T10:44:24.778Z,2268.00
2022-10-13T10:45:24.810Z,2124.00
2022-10-13T10:46:24.804Z,2056.00
2022-10-13T10:47:25.120Z,2112.00
2022-10-13T10:48:24.737Z,2384.00
2022-10-13T10:49:24.735Z,2564.00
2022-10-13T10:50:24.732Z,2112.00
2022-10-13T10:51:24.718Z,2056.00
2022-10-13T10:52:24.690Z,2056.00
2022-10-13T10:53:24.692Z,2076.00
2022-10-13T10:54:24.673Z,2108.00
2022-10-13T10:55:24.670Z,2152.00
2022-10-13T10:56:24.664Z,2296.00
2022-10-13T10:57:24.646Z,2548.00
2022-10-13T10:58:24.650Z,2500.00
2022-10-13T10:59:24.627Z,2420.00
2022-10-13T11:00:24.752Z,2188.00
2022-10-13T11:01:24.656Z,2164.00
2022-10-13T11:02:24.583Z,2172.00
2022-10-13T11:03:24.595Z,2132.00
2022-10-13T11:04:24.601Z,2176.00
2022-10-13T11:05:24.591Z,2384.00
2022-10-13T11:06:24.668Z,2848.00
2022-10-13T11:07:24.540Z,3948.00
2022-10-13T11:08:24.520Z,4240.00
2022-10-13T11:09:24.510Z,4460.00
2022-10-13T11:10:24.508Z,3984.00
2022-10-13T11:11:25.070Z,3688.00
2022-10-13T11:12:24.471Z,3496.00
2022-10-13T11:13:24.461Z,4256.00
2022-10-13T11:14:24.449Z,4504.00
2022-10-13T11:15:24.453Z,4752.00
2022-10-13T11:16:24.446Z,4356.00
2022-10-13T11:17:24.480Z,4496.00
2022-10-13T11:18:24.406Z,4272.00
2022-10-13T11:19:24.414Z,4476.00
2022-10-13T11:20:24.391Z,4796.00
2022-10-13T11:21:24.379Z,4660.00
2022-10-13T11:22:24.735Z,3528.00
2022-10-13T11:23:24.368Z,4472.00
2022-10-13T11:24:24.351Z,4188.00
2022-10-13T11:25:24.347Z,4180.00
2022-10-13T11:26:24.330Z,4252.00
2022-10-13T11:27:24.331Z,3644.00
2022-10-13T11:28:24.340Z,2416.00
2022-10-13T11:29:24.300Z,2820.00
2022-10-13T11:30:24.305Z,2256.00
2022-10-13T11:31:24.279Z,3320.00
2022-10-13T11:32:24.265Z,3532.00
2022-10-13T11:33:24.266Z,3744.00
2022-10-13T11:34:24.263Z,2892.00
2022-10-13T11:35:24.235Z,2332.00
2022-10-13T11:36:24.216Z,2588.00
2022-10-13T11:37:24.212Z,2636.00
2022-10-13T11:38:24.208Z,2168.00
2022-10-13T11:39:24.278Z,2844.00
2022-10-13T11:40:24.176Z,1576.00
2022-10-13T11:41:24.200Z,1200.00
2022-10-13T11:42:24.158Z,1168.00
2022-10-13T11:43:24.151Z,1484.00
2022-10-13T11:44:24.221Z,3768.00
2022-10-13T11:45:24.128Z,3012.00
2022-10-13T11:46:24.156Z,3056.00
2022-10-13T11:47:24.103Z,1936.00
2022-10-13T11:48:24.085Z,2076.00
2022-10-13T11:49:24.074Z,3920.00
2022-10-13T11:50:24.088Z,3404.00
2022-10-13T11:51:24.080Z,3548.00
2022-10-13T11:52:24.051Z,2256.00
2022-10-13T11:53:24.070Z,1912.00
2022-10-13T11:54:24.026Z,1624.00
2022-10-13T11:55:24.032Z,1464.00
2022-10-13T11:56:24.009Z,1292.00
2022-10-13T11:57:23.994Z,1156.00
2022-10-13T11:58:23.986Z,1152.00
2022-10-13T11:59:23.981Z,1224.00
2022-10-13T12:00:23.973Z,1320.00
2022-10-13T12:01:24.029Z,1504.00
2022-10-13T12:02:24.313Z,1656.00
2022-10-13T12:03:23.930Z,1880.00
2022-10-13T12:04:23.911Z,2192.00
2022-10-13T12:05:23.927Z,2388.00
2022-10-13T12:06:23.905Z,2496.00
2022-10-13T12:07:23.891Z,2292.00
2022-10-13T12:08:23.880Z,2104.00
2022-10-13T12:09:23.865Z,1952.00
2022-10-13T12:10:23.852Z,1940.00
2022-10-13T12:11:23.850Z,2068.00
2022-10-13T12:12:23.829Z,2148.00
2022-10-13T12:13:23.823Z,2188.00
2022-10-13T12:14:23.809Z,2208.00
2022-10-13T12:15:23.806Z,2308.00
2022-10-13T12:16:23.800Z,2324.00
2022-10-13T12:17:24.201Z,2516.00
2022-10-13T12:18:23.773Z,2756.00
2022-10-13T12:19:23.757Z,2804.00
2022-10-13T12:20:23.766Z,2532.00
2022-10-13T12:21:23.734Z,2244.00
2022-10-13T12:22:23.743Z,2232.00
2022-10-13T12:23:23.708Z,2680.00
2022-10-13T12:24:23.696Z,2832.00
2022-10-13T12:25:23.695Z,2820.00
2022-10-13T12:26:23.683Z,2432.00
2022-10-13T12:27:23.682Z,2256.00
2022-10-13T12:28:23.755Z,2068.00
2022-10-13T12:29:23.646Z,2148.00
2022-10-13T12:30:23.651Z,2028.00
2022-10-13T12:31:23.630Z,1868.00
2022-10-13T12:32:23.617Z,1688.00
2022-10-13T12:33:23.618Z,1592.00
2022-10-13T12:34:23.593Z,1592.00
2022-10-13T12:35:23.572Z,1856.00
2022-10-13T12:36:23.568Z,2188.00
2022-10-13T12:37:23.559Z,2248.00
2022-10-13T12:38:23.571Z,2116.00
2022-10-13T12:39:23.761Z,1952.00
2022-10-13T12:40:23.535Z,1848.00